createdAt,value
2022-10-11T00:01:12.793Z,11.70
2022-10-11T00:04:06.333Z,11.70
2022-10-11T00:06:58.478Z,11.70
2022-10-11T00:09:50.588Z,11.70
2022-10-11T00:12:42.973Z,11.70
2022-10-11T00:15:35.256Z,11.70
2022-10-11T00:18:27.392Z,11.70
2022-10-11T00:21:21.034Z,11.60
2022-10-11T00:24:15.999Z,11.60
2022-10-11T00:27:08.281Z,11.60
2022-10-11T00:30:00.506Z,11.30
2022-10-11T00:32:52.875Z,11.00
2022-10-11T00:35:45.122Z,10.70
2022-10-11T00:38:37.323Z,10.40
2022-10-11T00:41:29.660Z,10.10
2022-10-11T00:44:24.605Z,9.90
2022-10-11T00:47:24.514Z,9.90
2022-10-11T00:50:17.701Z,9.80
2022-10-11T00:53:12.232Z,9.80
2022-10-11T00:56:13.089Z,9.80
2022-10-11T00:59:09.865Z,9.80
2022-10-11T01:02:02.352Z,9.70
2022-10-11T01:05:11.643Z,9.60
2022-10-11T01:08:08.252Z,9.60
2022-10-11T01:11:01.047Z,9.60
2022-10-11T01:14:06.948Z,9.70
2022-10-11T01:17:20.286Z,9.70
2022-10-11T01:20:45.789Z,9.80
2022-10-11T01:23:50.301Z,9.70
2022-10-11T01:27:04.247Z,9.60
2022-10-11T01:30:18.111Z,9.70
2022-10-11T01:33:16.391Z,9.90
2022-10-11T01:36:27.626Z,10.10
2022-10-11T01:39:30.138Z,10.20
2022-10-11T01:42:23.595Z,10.30
2022-10-11T01:45:18.517Z,10.40
2022-10-11T01:48:13.473Z,10.50
2022-10-11T01:51:05.591Z,10.60
2022-10-11T01:54:14.173Z,10.60
2022-10-11T01:57:12.333Z,10.70
2022-10-11T02:00:22.587Z,10.80
2022-10-11T02:03:52.769Z,10.70
2022-10-11T02:06:50.784Z,10.60
2022-10-11T02:09:54.610Z,10.60
2022-10-11T02:12:53.552Z,10.40
2022-10-11T02:15:49.232Z,10.40
2022-10-11T02:18:49.991Z,10.40
2022-10-11T02:21:44.374Z,10.40
2022-10-11T02:24:41.473Z,10.40
2022-10-11T02:27:37.085Z,10.40
2022-10-11T02:30:30.703Z,10.60
2022-10-11T02:33:31.426Z,10.60
2022-10-11T02:36:26.942Z,10.60
2022-10-11T02:39:25.494Z,10.70
2022-10-11T02:42:27.091Z,10.70
2022-10-11T02:45:28.126Z,10.70
2022-10-11T02:48:20.506Z,10.70
2022-10-11T02:51:14.843Z,10.70
2022-10-11T02:54:06.953Z,10.80
2022-10-11T02:56:59.085Z,10.80
2022-10-11T02:59:51.203Z,10.80
2022-10-11T03:02:43.337Z,10.70
2022-10-11T03:05:40.618Z,10.70
2022-10-11T03:08:33.079Z,10.80
2022-10-11T03:11:25.343Z,10.70
2022-10-11T03:14:17.462Z,10.60
2022-10-11T03:17:34.542Z,10.60
2022-10-11T03:20:21.779Z,10.70
2022-10-11T03:23:14.174Z,10.80
2022-10-11T03:26:07.061Z,10.80
2022-10-11T03:28:59.521Z,10.80
2022-10-11T03:31:51.598Z,10.80
2022-10-11T03:34:43.717Z,10.80
2022-10-11T03:37:35.893Z,10.80
2022-10-11T03:40:28.037Z,10.80
2022-10-11T03:43:20.437Z,10.80
2022-10-11T03:46:12.579Z,10.80
2022-10-11T03:49:04.791Z,10.70
2022-10-11T03:51:57.073Z,10.60
2022-10-11T03:54:49.198Z,10.60
2022-10-11T03:57:41.555Z,10.60
2022-10-11T04:00:34.630Z,10.60
2022-10-11T04:03:26.854Z,10.60
2022-10-11T04:06:19.013Z,10.60
2022-10-11T04:09:11.115Z,10.60
2022-10-11T04:12:03.784Z,10.60
2022-10-11T04:14:55.920Z,10.70
2022-10-11T04:17:48.161Z,10.70
2022-10-11T04:20:40.315Z,10.50
2022-10-11T04:23:32.519Z,10.00
2022-10-11T04:26:24.629Z,9.80
2022-10-11T04:29:16.762Z,9.60
2022-10-11T04:32:08.891Z,9.50
2022-10-11T04:35:01.324Z,9.40
2022-10-11T04:37:53.504Z,9.30
2022-10-11T04:40:45.632Z,9.10
2022-10-11T04:43:38.149Z,9.20
2022-10-11T04:46:30.339Z,9.20
2022-10-11T04:49:22.538Z,9.30
2022-10-11T04:52:14.914Z,9.40
2022-10-11T04:55:07.328Z,9.60
2022-10-11T04:57:59.459Z,9.70
2022-10-11T05:00:51.580Z,9.80
2022-10-11T05:03:43.683Z,9.70
2022-10-11T05:06:35.799Z,9.50
2022-10-11T05:09:27.909Z,9.60
2022-10-11T05:12:20.190Z,9.50
2022-10-11T05:15:12.333Z,9.30
2022-10-11T05:18:04.524Z,9.30
2022-10-11T05:21:16.414Z,9.30
2022-10-11T05:24:08.602Z,9.40
2022-10-11T05:27:03.277Z,9.30
2022-10-11T05:29:55.814Z,9.40
2022-10-11T05:32:47.981Z,9.50
2022-10-11T05:35:40.291Z,9.50
2022-10-11T05:38:32.695Z,9.50
2022-10-11T05:41:25.005Z,9.50
2022-10-11T05:44:17.116Z,9.50
2022-10-11T05:47:09.327Z,9.60
2022-10-11T05:50:01.554Z,9.70
2022-10-11T05:52:53.894Z,9.90
2022-10-11T05:55:45.999Z,10.10
2022-10-11T05:58:39.855Z,10.20
2022-10-11T06:01:32.468Z,10.30
2022-10-11T06:04:24.695Z,10.50
2022-10-11T06:07:16.869Z,10.60
2022-10-11T06:10:10.125Z,10.60
2022-10-11T06:13:02.519Z,10.40
2022-10-11T06:15:54.712Z,10.30
2022-10-11T06:18:46.861Z,10.40
2022-10-11T06:21:38.999Z,10.60
2022-10-11T06:24:31.236Z,11.00
2022-10-11T06:27:23.318Z,11.20
2022-10-11T06:30:15.563Z,12.40
2022-10-11T06:33:07.677Z,14.00
2022-10-11T06:36:02.394Z,15.40
2022-10-11T06:38:55.557Z,16.40
2022-10-11T06:41:47.648Z,17.50
2022-10-11T06:44:39.867Z,18.60
2022-10-11T06:47:32.009Z,19.40
2022-10-11T06:50:41.014Z,19.90
2022-10-11T06:53:36.697Z,20.10
2022-10-11T06:56:30.871Z,19.40
2022-10-11T06:59:23.022Z,19.30
2022-10-11T07:02:15.173Z,19.60
2022-10-11T07:05:08.442Z,20.00
2022-10-11T07:08:01.686Z,20.30
2022-10-11T07:10:53.862Z,20.10
2022-10-11T07:13:51.016Z,20.10
2022-10-11T07:16:43.151Z,20.20
2022-10-11T07:19:35.395Z,20.10
2022-10-11T07:22:27.774Z,20.00
2022-10-11T07:25:19.903Z,19.90
2022-10-11T07:28:13.258Z,20.00
2022-10-11T07:31:10.744Z,19.70
2022-10-11T07:34:02.940Z,19.40
2022-10-11T07:36:55.079Z,19.20
2022-10-11T07:39:49.235Z,19.40
2022-10-11T07:42:41.384Z,19.30
2022-10-11T07:45:33.531Z,19.30
2022-10-11T07:48:25.620Z,19.50
2022-10-11T07:51:22.366Z,19.60
2022-10-11T07:54:14.466Z,19.30
2022-10-11T07:57:06.573Z,19.30
2022-10-11T07:59:58.719Z,19.30
2022-10-11T08:02:50.857Z,19.00
2022-10-11T08:05:42.987Z,18.80
2022-10-11T08:08:36.085Z,18.70
2022-10-11T08:11:31.611Z,18.60
2022-10-11T08:14:23.902Z,18.40
2022-10-11T08:17:16.096Z,18.60
2022-10-11T08:20:08.595Z,18.70
2022-10-11T08:23:00.933Z,18.70
2022-10-11T08:25:56.894Z,18.70
2022-10-11T08:28:49.130Z,18.70
2022-10-11T08:31:41.320Z,18.80
2022-10-11T08:34:33.471Z,19.00
2022-10-11T08:37:25.620Z,18.90
2022-10-11T08:40:21.205Z,18.90
2022-10-11T08:43:36.114Z,19.20
2022-10-11T08:46:32.586Z,19.70
2022-10-11T08:49:29.488Z,19.70
2022-10-11T08:52:24.467Z,19.70
2022-10-11T08:55:44.014Z,19.60
2022-10-11T08:59:00.845Z,19.60
2022-10-11T09:02:01.591Z,19.60
2022-10-11T09:04:54.548Z,19.40
2022-10-11T09:08:07.285Z,19.50
2022-10-11T09:11:34.340Z,19.30
2022-10-11T09:14:47.850Z,19.50
2022-10-11T09:18:27.690Z,20.00
2022-10-11T09:21:37.702Z,20.30
2022-10-11T09:24:35.386Z,20.20
2022-10-11T09:27:57.702Z,19.80
2022-10-11T09:30:51.321Z,19.50
2022-10-11T09:33:43.433Z,19.40
2022-10-11T09:36:41.656Z,19.30
2022-10-11T09:39:37.212Z,19.30
2022-10-11T09:42:29.339Z,19.30
2022-10-11T09:45:22.320Z,19.30
2022-10-11T09:48:19.698Z,19.20
2022-10-11T09:51:20.018Z,19.00
2022-10-11T09:54:12.277Z,19.00
2022-10-11T09:57:04.579Z,19.00
2022-10-11T10:00:03.590Z,19.00
2022-10-11T10:02:58.328Z,19.30
2022-10-11T10:06:10.505Z,19.50
2022-10-11T10:09:26.325Z,19.30
2022-10-11T10:12:24.710Z,19.40
2022-10-11T10:15:20.277Z,19.70
2022-10-11T10:18:24.894Z,19.90
2022-10-11T10:21:35.590Z,20.00
2022-10-11T10:24:30.934Z,20.10
2022-10-11T10:27:25.543Z,20.10
2022-10-11T10:30:19.491Z,19.90
2022-10-11T10:33:12.019Z,19.70
2022-10-11T10:36:17.628Z,19.90
2022-10-11T10:39:31.426Z,20.00
2022-10-11T10:42:23.549Z,19.80
2022-10-11T10:45:21.604Z,19.90
2022-10-11T10:49:19.115Z,20.00
2022-10-11T10:52:25.233Z,19.90
2022-10-11T10:55:23.257Z,20.00
2022-10-11T10:59:02.816Z,20.00
2022-10-11T11:02:38.999Z,19.90
2022-10-11T11:05:59.137Z,19.90
2022-10-11T11:09:14.149Z,20.00
2022-10-11T11:12:17.863Z,20.30
2022-10-11T11:15:19.874Z,20.40
2022-10-11T11:18:30.003Z,20.70
2022-10-11T11:21:27.251Z,20.70
2022-10-11T11:24:40.348Z,20.70
2022-10-11T11:27:53.411Z,20.40
2022-10-11T11:31:17.861Z,20.30
2022-10-11T11:34:38.310Z,20.40
2022-10-11T11:37:40.191Z,20.30
2022-10-11T11:40:39.316Z,20.30
2022-10-11T11:43:39.192Z,20.40
2022-10-11T11:47:06.303Z,20.60
2022-10-11T11:49:59.746Z,20.80
2022-10-11T11:53:00.789Z,21.10
2022-10-11T11:56:04.255Z,21.00
2022-10-11T11:59:10.157Z,21.20
2022-10-11T12:02:23.636Z,21.10
2022-10-11T12:05:19.701Z,21.10
2022-10-11T12:08:28.058Z,20.80
2022-10-11T12:11:22.630Z,20.40
2022-10-11T12:14:16.530Z,20.30
2022-10-11T12:17:20.889Z,20.30
2022-10-11T12:20:32.192Z,20.00
2022-10-11T12:23:30.050Z,19.90
2022-10-11T12:26:28.214Z,20.10
2022-10-11T12:29:49.752Z,20.30
2022-10-11T12:32:41.842Z,20.70
2022-10-11T12:35:33.995Z,20.90
2022-10-11T12:38:30.949Z,20.90
2022-10-11T12:41:26.160Z,20.70
2022-10-11T12:44:26.699Z,20.60
2022-10-11T12:47:37.275Z,20.50
2022-10-11T12:51:07.075Z,20.40
2022-10-11T12:54:30.964Z,20.10
2022-10-11T12:57:46.636Z,19.60
2022-10-11T13:01:18.711Z,19.40
2022-10-11T13:04:12.113Z,19.20
2022-10-11T13:07:12.815Z,19.00
2022-10-11T13:10:06.011Z,19.00
2022-10-11T13:13:00.159Z,18.90
2022-10-11T13:15:54.271Z,18.80
2022-10-11T13:18:49.091Z,18.70
2022-10-11T13:21:41.826Z,18.80
2022-10-11T13:24:39.274Z,18.90
2022-10-11T13:27:31.736Z,18.90
2022-10-11T13:30:35.595Z,19.00
2022-10-11T13:33:38.259Z,19.00
2022-10-11T13:36:31.773Z,19.00
2022-10-11T13:39:31.753Z,19.00
2022-10-11T13:42:29.681Z,19.20
2022-10-11T13:45:26.047Z,19.30
2022-10-11T13:48:18.346Z,19.20
2022-10-11T13:51:26.623Z,19.30
2022-10-11T13:54:18.735Z,19.40
2022-10-11T13:57:13.161Z,19.30
2022-10-11T14:00:10.818Z,19.10
2022-10-11T14:03:18.291Z,19.20
2022-10-11T14:06:10.999Z,19.20
2022-10-11T14:09:03.340Z,19.30
2022-10-11T14:11:55.943Z,19.20
2022-10-11T14:14:48.333Z,19.20
2022-10-11T14:17:45.712Z,19.20
2022-10-11T14:20:40.158Z,19.10
2022-10-11T14:23:32.274Z,19.10
2022-10-11T14:26:25.862Z,18.90
2022-10-11T14:29:35.663Z,19.00
2022-10-11T14:32:33.981Z,19.00
2022-10-11T14:35:30.287Z,18.90
2022-10-11T14:38:22.415Z,18.90
2022-10-11T14:41:14.735Z,18.90
2022-10-11T14:44:06.868Z,18.90
2022-10-11T14:46:59.606Z,18.80
2022-10-11T14:49:51.736Z,18.80
2022-10-11T14:52:43.835Z,18.80
2022-10-11T14:55:37.694Z,18.80
2022-10-11T14:58:29.846Z,18.70
2022-10-11T15:01:22.064Z,18.70
2022-10-11T15:04:14.290Z,18.70
2022-10-11T15:07:06.467Z,18.60
2022-10-11T15:09:58.734Z,18.70
2022-10-11T15:12:53.000Z,18.80
2022-10-11T15:15:45.432Z,18.80
2022-10-11T15:18:37.561Z,18.80
2022-10-11T15:21:30.369Z,18.70
2022-10-11T15:24:22.579Z,18.60
2022-10-11T15:27:17.185Z,18.50
2022-10-11T15:30:43.491Z,18.00
2022-10-11T15:33:35.705Z,17.60
2022-10-11T15:36:29.593Z,17.30
2022-10-11T15:39:30.650Z,17.20
2022-10-11T15:42:22.790Z,17.10
2022-10-11T15:45:15.859Z,17.10
2022-10-11T15:48:08.818Z,17.20
2022-10-11T15:51:01.002Z,17.40
2022-10-11T15:53:53.169Z,17.50
2022-10-11T15:56:45.340Z,17.60
2022-10-11T15:59:37.512Z,17.60
2022-10-11T16:02:29.636Z,17.60
2022-10-11T16:05:24.746Z,17.60
2022-10-11T16:08:16.875Z,17.50
2022-10-11T16:11:10.088Z,17.40
2022-10-11T16:14:02.531Z,17.20
2022-10-11T16:16:54.650Z,17.20
2022-10-11T16:19:46.799Z,17.10
2022-10-11T16:22:38.949Z,17.10
2022-10-11T16:25:31.058Z,17.10
2022-10-11T16:28:23.455Z,17.00
2022-10-11T16:31:18.328Z,17.00
2022-10-11T16:34:10.454Z,16.80
2022-10-11T16:37:02.616Z,16.70
2022-10-11T16:39:54.992Z,16.70
2022-10-11T16:42:47.602Z,16.80
2022-10-11T16:45:39.779Z,16.70
2022-10-11T16:48:31.880Z,16.60
2022-10-11T16:51:24.895Z,16.40
2022-10-11T16:54:20.413Z,16.40
2022-10-11T16:57:15.345Z,16.40
2022-10-11T17:00:09.353Z,16.40
2022-10-11T17:03:01.539Z,16.30
2022-10-11T17:05:53.744Z,16.40
2022-10-11T17:08:46.485Z,16.30
2022-10-11T17:11:38.760Z,16.40
2022-10-11T17:14:30.885Z,16.30
2022-10-11T17:17:23.119Z,16.20
2022-10-11T17:20:15.314Z,16.10
2022-10-11T17:23:07.475Z,16.10
2022-10-11T17:26:08.581Z,16.00
2022-10-11T17:29:03.103Z,15.90
2022-10-11T17:31:55.720Z,15.90
2022-10-11T17:34:48.037Z,15.80
2022-10-11T17:37:40.160Z,15.70
2022-10-11T17:40:32.273Z,15.70
2022-10-11T17:43:24.400Z,15.70
2022-10-11T17:46:17.591Z,15.70
2022-10-11T17:49:10.887Z,15.60
2022-10-11T17:52:03.056Z,15.60
2022-10-11T17:54:55.154Z,15.50
2022-10-11T17:57:47.343Z,15.50
2022-10-11T18:00:40.037Z,15.40
2022-10-11T18:03:32.296Z,15.40
2022-10-11T18:06:28.658Z,15.20
2022-10-11T18:09:21.252Z,15.10
2022-10-11T18:12:13.406Z,15.10
2022-10-11T18:15:05.936Z,15.10
2022-10-11T18:17:59.572Z,15.00
2022-10-11T18:20:51.677Z,14.90
2022-10-11T18:23:43.882Z,14.90
2022-10-11T18:26:36.093Z,14.90
2022-10-11T18:29:28.261Z,14.80
2022-10-11T18:32:20.948Z,14.80
2022-10-11T18:35:13.187Z,14.70
2022-10-11T18:38:05.809Z,14.70
2022-10-11T18:40:58.272Z,14.60
2022-10-11T18:43:52.453Z,14.50
2022-10-11T18:46:45.273Z,14.50
2022-10-11T18:49:37.477Z,14.50
2022-10-11T18:52:29.644Z,14.50
2022-10-11T18:55:21.839Z,14.40
2022-10-11T18:58:13.980Z,14.40
2022-10-11T19:01:07.702Z,14.40
2022-10-11T19:04:01.686Z,14.30
2022-10-11T19:06:53.908Z,14.20
2022-10-11T19:09:47.112Z,14.10
2022-10-11T19:12:39.224Z,14.20
2022-10-11T19:15:31.357Z,14.10
2022-10-11T19:18:23.509Z,14.10
2022-10-11T19:21:16.150Z,14.10
2022-10-11T19:24:09.084Z,14.00
2022-10-11T19:27:03.064Z,14.00
2022-10-11T19:29:55.326Z,14.00
2022-10-11T19:32:47.467Z,14.00
2022-10-11T19:35:42.236Z,13.90
2022-10-11T19:38:35.564Z,13.90
2022-10-11T19:41:28.404Z,13.80
2022-10-11T19:44:20.912Z,13.70
2022-10-11T19:47:13.036Z,13.70
2022-10-11T19:50:05.646Z,13.60
2022-10-11T19:52:57.766Z,13.60
2022-10-11T19:55:50.085Z,13.50
2022-10-11T19:58:42.955Z,13.50
2022-10-11T20:01:36.122Z,13.50
2022-10-11T20:07:40.898Z,13.30
2022-10-11T20:10:33.772Z,13.20
2022-10-11T20:13:30.107Z,13.20
2022-10-11T20:16:28.530Z,13.10
2022-10-11T20:19:26.214Z,13.10
2022-10-11T20:22:18.501Z,13.10
2022-10-11T20:25:10.971Z,13.10
2022-10-11T20:28:03.207Z,13.00
2022-10-11T20:30:55.375Z,13.10
2022-10-11T20:33:48.387Z,13.00
2022-10-11T20:36:40.719Z,12.90
2022-10-11T20:39:32.847Z,13.10
2022-10-11T20:42:28.875Z,13.00
2022-10-11T20:45:21.944Z,12.80
2022-10-11T20:48:14.069Z,12.70
2022-10-11T20:51:08.218Z,12.70
2022-10-11T20:54:02.231Z,12.70
2022-10-11T20:56:54.415Z,12.80
2022-10-11T20:59:48.026Z,12.70
2022-10-11T21:02:40.125Z,12.60
2022-10-11T21:05:32.269Z,12.70
2022-10-11T21:08:24.406Z,12.70
2022-10-11T21:11:16.569Z,12.60
2022-10-11T21:14:08.790Z,12.70
2022-10-11T21:17:00.866Z,12.40
2022-10-11T21:19:53.290Z,11.70
2022-10-11T21:22:45.415Z,11.40
2022-10-11T21:25:38.040Z,11.10
2022-10-11T21:28:30.272Z,10.90
2022-10-11T21:31:23.659Z,10.90
2022-10-11T21:34:15.883Z,10.90
2022-10-11T21:37:08.332Z,11.00
2022-10-11T21:40:00.461Z,11.10
2022-10-11T21:42:52.629Z,11.20
2022-10-11T21:45:44.812Z,11.20
2022-10-11T21:48:37.019Z,11.10
2022-10-11T21:51:33.255Z,10.90
2022-10-11T21:54:25.432Z,10.80
2022-10-11T21:57:17.587Z,10.80
2022-10-11T22:00:10.468Z,10.90
2022-10-11T22:03:02.588Z,11.10
2022-10-11T22:05:54.908Z,11.20
2022-10-11T22:08:48.886Z,11.30
2022-10-11T22:11:41.019Z,11.50
2022-10-11T22:14:33.140Z,11.60
2022-10-11T22:17:25.450Z,11.50
2022-10-11T22:20:17.712Z,11.60
2022-10-11T22:23:10.357Z,11.50
2022-10-11T22:26:10.738Z,11.50
2022-10-11T22:29:02.973Z,11.50
2022-10-11T22:31:55.087Z,11.60
2022-10-11T22:34:47.250Z,11.60
2022-10-11T22:37:39.383Z,11.70
2022-10-11T22:40:31.572Z,11.70
2022-10-11T22:43:23.714Z,11.80
2022-10-11T22:46:16.138Z,11.70
2022-10-11T22:49:08.271Z,11.70
2022-10-11T22:52:00.395Z,11.70
2022-10-11T22:54:52.541Z,11.70
2022-10-11T22:57:44.660Z,11.80
2022-10-11T23:00:36.912Z,11.80
2022-10-11T23:03:29.056Z,11.70
2022-10-11T23:06:21.207Z,11.70
2022-10-11T23:09:13.547Z,11.60
2022-10-11T23:12:06.002Z,11.60
2022-10-11T23:14:58.143Z,11.60
2022-10-11T23:17:50.265Z,11.80
2022-10-11T23:20:42.370Z,11.70
2022-10-11T23:23:35.090Z,11.70
2022-10-11T23:26:27.292Z,11.70
2022-10-11T23:29:19.429Z,11.80
2022-10-11T23:32:11.774Z,11.70
2022-10-11T23:35:04.286Z,11.60
2022-10-11T23:37:56.398Z,11.60
2022-10-11T23:40:48.527Z,11.70
2022-10-11T23:43:40.673Z,11.60
2022-10-11T23:46:32.793Z,11.60
2022-10-11T23:49:24.949Z,11.70
2022-10-11T23:52:17.235Z,11.80
2022-10-11T23:55:09.643Z,11.70
2022-10-11T23:58:01.746Z,11.70
